sensor_id;sensor_type;location;lat;lon;timestamp;P1;durP1;ratioP1;P2;durP2;ratioP2
44446;SDS011;30152;52.066;5.358;2023-04-06T06:07:38;29.58;;;15.05;;
44446;SDS011;30152;52.066;5.358;2023-04-06T06:10:04;31.95;;;14.13;;
44446;SDS011;30152;52.066;5.358;2023-04-06T06:12:30;28.17;;;14.90;;
44446;SDS011;30152;52.066;5.358;2023-04-06T06:14:56;35.72;;;15.07;;
44446;SDS011;30152;52.066;5.358;2023-04-06T06:17:21;29.10;;;14.00;;
44446;SDS011;30152;52.066;5.358;2023-04-06T06:19:47;30.70;;;13.60;;
44446;SDS011;30152;52.066;5.358;2023-04-06T06:22:12;28.92;;;14.27;;
44446;SDS011;30152;52.066;5.358;2023-04-06T06:24:38;29.08;;;14.65;;
44446;SDS011;30152;52.066;5.358;2023-04-06T06:27:04;27.42;;;14.02;;
44446;SDS011;30152;52.066;5.358;2023-04-06T06:29:30;31.27;;;14.27;;
44446;SDS011;30152;52.066;5.358;2023-04-06T06:31:56;37.80;;;16.35;;
44446;SDS011;30152;52.066;5.358;2023-04-06T06:34:22;29.50;;;14.27;;
44446;SDS011;30152;52.066;5.358;2023-04-06T06:36:47;31.08;;;15.25;;
44446;SDS011;30152;52.066;5.358;2023-04-06T06:39:13;32.28;;;15.48;;
44446;SDS011;30152;52.066;5.358;2023-04-06T06:41:39;29.08;;;14.13;;
44446;SDS011;30152;52.066;5.358;2023-04-06T06:44:05;32.28;;;15.48;;
44446;SDS011;30152;52.066;5.358;2023-04-06T06:46:30;37.08;;;15.48;;
44446;SDS011;30152;52.066;5.358;2023-04-06T06:48:56;32.58;;;16.27;;
44446;SDS011;30152;52.066;5.358;2023-04-06T06:51:23;35.17;;;15.95;;
44446;SDS011;30152;52.066;5.358;2023-04-06T06:53:49;38.10;;;15.70;;
44446;SDS011;30152;52.066;5.358;2023-04-06T06:56:15;36.97;;;15.63;;
44446;SDS011;30152;52.066;5.358;2023-04-06T06:58:40;30.55;;;15.80;;
44446;SDS011;30152;52.066;5.358;2023-04-06T07:01:06;35.22;;;16.42;;
44446;SDS011;30152;52.066;5.358;2023-04-06T07:03:32;32.67;;;15.70;;
44446;SDS011;30152;52.066;5.358;2023-04-06T07:05:58;34.35;;;16.60;;
44446;SDS011;30152;52.066;5.358;2023-04-06T07:08:24;30.65;;;15.70;;
44446;SDS011;30152;52.066;5.358;2023-04-06T07:10:51;31.92;;;15.73;;
44446;SDS011;30152;52.066;5.358;2023-04-06T07:13:23;35.70;;;15.20;;
44446;SDS011;30152;52.066;5.358;2023-04-06T07:15:50;36.92;;;16.95;;
44446;SDS011;30152;52.066;5.358;2023-04-06T07:18:16;33.28;;;15.55;;
44446;SDS011;30152;52.066;5.358;2023-04-06T07:20:42;32.60;;;16.52;;
44446;SDS011;30152;52.066;5.358;2023-04-06T07:23:07;36.30;;;16.38;;
44446;SDS011;30152;52.066;5.358;2023-04-06T07:25:33;32.63;;;15.75;;
44446;SDS011;30152;52.066;5.358;2023-04-06T07:27:58;35.58;;;15.23;;
44446;SDS011;30152;52.066;5.358;2023-04-06T07:30:24;34.00;;;17.50;;
44446;SDS011;30152;52.066;5.358;2023-04-06T07:32:53;34.50;;;17.02;;
44446;SDS011;30152;52.066;5.358;2023-04-06T07:35:23;38.25;;;16.25;;
44446;SDS011;30152;52.066;5.358;2023-04-06T07:37:50;36.22;;;17.40;;
44446;SDS011;30152;52.066;5.358;2023-04-06T07:40:16;35.17;;;16.85;;
44446;SDS011;30152;52.066;5.358;2023-04-06T07:42:43;37.03;;;17.23;;
44446;SDS011;30152;52.066;5.358;2023-04-06T07:45:09;34.83;;;16.90;;
44446;SDS011;30152;52.066;5.358;2023-04-06T07:47:34;37.17;;;17.75;;
44446;SDS011;30152;52.066;5.358;2023-04-06T07:50:00;34.80;;;16.25;;
44446;SDS011;30152;52.066;5.358;2023-04-06T07:52:26;32.17;;;17.00;;
44446;SDS011;30152;52.066;5.358;2023-04-06T07:54:52;33.88;;;17.05;;
44446;SDS011;30152;52.066;5.358;2023-04-06T07:57:17;37.50;;;18.00;;
44446;SDS011;30152;52.066;5.358;2023-04-06T07:59:43;43.22;;;17.17;;
44446;SDS011;30152;52.066;5.358;2023-04-06T08:02:09;34.72;;;16.33;;
44446;SDS011;30152;52.066;5.358;2023-04-06T08:04:35;40.28;;;18.23;;
44446;SDS011;30152;52.066;5.358;2023-04-06T08:07:01;34.22;;;17.27;;
44446;SDS011;30152;52.066;5.358;2023-04-06T08:09:27;35.92;;;18.40;;
44446;SDS011;30152;52.066;5.358;2023-04-06T08:11:52;36.05;;;17.42;;
44446;SDS011;30152;52.066;5.358;2023-04-06T08:14:18;40.65;;;18.05;;
44446;SDS011;30152;52.066;5.358;2023-04-06T08:16:43;33.83;;;17.35;;
44446;SDS011;30152;52.066;5.358;2023-04-06T08:19:09;36.83;;;16.30;;
44446;SDS011;30152;52.066;5.358;2023-04-06T08:21:35;41.10;;;19.33;;
44446;SDS011;30152;52.066;5.358;2023-04-06T08:24:01;38.97;;;17.98;;
44446;SDS011;30152;52.066;5.358;2023-04-06T08:26:27;34.42;;;17.88;;
44446;SDS011;30152;52.066;5.358;2023-04-06T08:28:53;33.33;;;17.58;;
44446;SDS011;30152;52.066;5.358;2023-04-06T08:31:19;38.60;;;18.77;;
44446;SDS011;30152;52.066;5.358;2023-04-06T08:33:44;37.38;;;18.65;;
44446;SDS011;30152;52.066;5.358;2023-04-06T08:36:11;38.15;;;17.95;;
44446;SDS011;30152;52.066;5.358;2023-04-06T08:38:38;37.67;;;19.52;;
44446;SDS011;30152;52.066;5.358;2023-04-06T08:41:10;38.50;;;19.15;;
44446;SDS011;30152;52.066;5.358;2023-04-06T08:43:44;42.40;;;18.77;;
44446;SDS011;30152;52.066;5.358;2023-04-06T08:46:13;37.60;;;18.13;;
44446;SDS011;30152;52.066;5.358;2023-04-06T08:48:40;39.50;;;18.52;;
44446;SDS011;30152;52.066;5.358;2023-04-06T08:51:07;37.47;;;19.52;;
44446;SDS011;30152;52.066;5.358;2023-04-06T08:53:36;36.88;;;18.20;;
44446;SDS011;30152;52.066;5.358;2023-04-06T08:56:02;41.20;;;19.05;;
44446;SDS011;30152;52.066;5.358;2023-04-06T08:58:31;35.92;;;19.55;;
44446;SDS011;30152;52.066;5.358;2023-04-06T09:00:58;37.05;;;19.05;;
44446;SDS011;30152;52.066;5.358;2023-04-06T09:03:24;37.95;;;19.05;;
44446;SDS011;30152;52.066;5.358;2023-04-06T09:05:51;41.22;;;19.98;;
44446;SDS011;30152;52.066;5.358;2023-04-06T09:08:17;35.08;;;17.88;;
44446;SDS011;30152;52.066;5.358;2023-04-06T09:10:43;31.42;;;17.15;;
44446;SDS011;30152;52.066;5.358;2023-04-06T09:13:10;37.70;;;18.98;;
44446;SDS011;30152;52.066;5.358;2023-04-06T09:15:36;35.28;;;18.45;;
44446;SDS011;30152;52.066;5.358;2023-04-06T09:18:02;33.63;;;18.27;;
44446;SDS011;30152;52.066;5.358;2023-04-06T09:20:28;34.83;;;18.13;;
44446;SDS011;30152;52.066;5.358;2023-04-06T09:22:54;31.95;;;17.60;;
44446;SDS011;30152;52.066;5.358;2023-04-06T09:25:21;38.20;;;17.58;;
44446;SDS011;30152;52.066;5.358;2023-04-06T09:27:48;34.65;;;17.77;;
44446;SDS011;30152;52.066;5.358;2023-04-06T09:30:15;40.65;;;19.75;;
44446;SDS011;30152;52.066;5.358;2023-04-06T09:35:12;41.03;;;20.45;;
44446;SDS011;30152;52.066;5.358;2023-04-06T09:37:38;38.53;;;20.08;;
44446;SDS011;30152;52.066;5.358;2023-04-06T09:40:04;40.20;;;20.48;;
44446;SDS011;30152;52.066;5.358;2023-04-06T09:42:30;38.30;;;20.42;;
44446;SDS011;30152;52.066;5.358;2023-04-06T09:44:56;49.38;;;22.35;;
44446;SDS011;30152;52.066;5.358;2023-04-06T09:47:23;44.97;;;21.45;;
44446;SDS011;30152;52.066;5.358;2023-04-06T09:49:51;47.08;;;21.70;;
44446;SDS011;30152;52.066;5.358;2023-04-06T09:52:18;43.63;;;21.13;;
44446;SDS011;30152;52.066;5.358;2023-04-06T09:54:44;43.67;;;21.38;;
44446;SDS011;30152;52.066;5.358;2023-04-06T09:57:15;45.00;;;21.27;;
44446;SDS011;30152;52.066;5.358;2023-04-06T09:59:48;45.53;;;19.92;;
44446;SDS011;30152;52.066;5.358;2023-04-06T10:02:28;41.63;;;21.23;;
44446;SDS011;30152;52.066;5.358;2023-04-06T10:05:12;45.03;;;21.85;;
44446;SDS011;30152;52.066;5.358;2023-04-06T10:07:39;38.75;;;18.25;;
44446;SDS011;30152;52.066;5.358;2023-04-06T10:10:05;41.88;;;19.80;;
44446;SDS011;30152;52.066;5.358;2023-04-06T10:12:32;47.28;;;22.42;;
44446;SDS011;30152;52.066;5.358;2023-04-06T10:14:58;38.58;;;18.33;;
44446;SDS011;30152;52.066;5.358;2023-04-06T10:17:24;39.90;;;17.17;;
44446;SDS011;30152;52.066;5.358;2023-04-06T10:19:54;43.97;;;19.17;;
44446;SDS011;30152;52.066;5.358;2023-04-06T10:22:28;37.88;;;17.58;;
44446;SDS011;30152;52.066;5.358;2023-04-06T10:27:28;36.60;;;15.00;;
44446;SDS011;30152;52.066;5.358;2023-04-06T10:30:01;33.92;;;15.85;;
44446;SDS011;30152;52.066;5.358;2023-04-06T10:32:31;26.83;;;13.55;;
44446;SDS011;30152;52.066;5.358;2023-04-06T10:35:07;27.40;;;12.10;;
44446;SDS011;30152;52.066;5.358;2023-04-06T10:37:50;23.40;;;10.13;;
44446;SDS011;30152;52.066;5.358;2023-04-06T10:40:18;24.02;;;10.48;;
44446;SDS011;30152;52.066;5.358;2023-04-06T10:42:54;21.77;;;9.00;;
44446;SDS011;30152;52.066;5.358;2023-04-06T10:45:24;18.83;;;9.27;;
44446;SDS011;30152;52.066;5.358;2023-04-06T10:47:53;18.35;;;9.13;;
44446;SDS011;30152;52.066;5.358;2023-04-06T10:50:19;21.88;;;9.80;;
44446;SDS011;30152;52.066;5.358;2023-04-06T10:52:46;15.27;;;7.88;;
44446;SDS011;30152;52.066;5.358;2023-04-06T10:55:16;18.45;;;8.80;;
44446;SDS011;30152;52.066;5.358;2023-04-06T10:57:41;18.38;;;8.82;;
44446;SDS011;30152;52.066;5.358;2023-04-06T11:00:08;15.20;;;7.85;;
44446;SDS011;30152;52.066;5.358;2023-04-06T11:02:34;19.23;;;8.57;;
44446;SDS011;30152;52.066;5.358;2023-04-06T11:05:02;16.33;;;7.30;;
44446;SDS011;30152;52.066;5.358;2023-04-06T11:07:28;13.43;;;5.95;;
44446;SDS011;30152;52.066;5.358;2023-04-06T11:09:55;14.75;;;7.20;;
44446;SDS011;30152;52.066;5.358;2023-04-06T11:12:22;14.30;;;6.97;;
44446;SDS011;30152;52.066;5.358;2023-04-06T11:14:59;16.75;;;7.18;;
44446;SDS011;30152;52.066;5.358;2023-04-06T11:17:31;16.00;;;7.80;;
44446;SDS011;30152;52.066;5.358;2023-04-06T11:19:58;12.90;;;6.20;;
44446;SDS011;30152;52.066;5.358;2023-04-06T11:22:24;16.73;;;7.30;;
44446;SDS011;30152;52.066;5.358;2023-04-06T11:24:50;11.98;;;6.03;;
44446;SDS011;30152;52.066;5.358;2023-04-06T11:27:17;14.20;;;6.72;;
44446;SDS011;30152;52.066;5.358;2023-04-06T11:29:43;15.23;;;7.03;;
44446;SDS011;30152;52.066;5.358;2023-04-06T11:32:11;14.20;;;7.00;;
44446;SDS011;30152;52.066;5.358;2023-04-06T11:34:37;13.63;;;6.35;;
44446;SDS011;30152;52.066;5.358;2023-04-06T11:37:09;14.70;;;7.07;;
44446;SDS011;30152;52.066;5.358;2023-04-06T11:39:54;16.15;;;6.50;;
44446;SDS011;30152;52.066;5.358;2023-04-06T11:42:26;12.85;;;6.97;;
44446;SDS011;30152;52.066;5.358;2023-04-06T11:44:53;16.38;;;7.85;;
44446;SDS011;30152;52.066;5.358;2023-04-06T11:47:27;16.58;;;7.97;;
44446;SDS011;30152;52.066;5.358;2023-04-06T11:49:54;14.57;;;7.28;;
44446;SDS011;30152;52.066;5.358;2023-04-06T11:52:22;15.35;;;8.25;;
44446;SDS011;30152;52.066;5.358;2023-04-06T11:54:49;17.38;;;9.18;;
44446;SDS011;30152;52.066;5.358;2023-04-06T11:57:16;18.30;;;9.68;;
44446;SDS011;30152;52.066;5.358;2023-04-06T11:59:43;18.25;;;8.35;;
44446;SDS011;30152;52.066;5.358;2023-04-06T12:02:09;17.83;;;8.55;;
44446;SDS011;30152;52.066;5.358;2023-04-06T12:04:35;18.58;;;9.45;;
44446;SDS011;30152;52.066;5.358;2023-04-06T12:07:01;18.85;;;8.98;;
44446;SDS011;30152;52.066;5.358;2023-04-06T12:09:27;19.13;;;9.60;;
44446;SDS011;30152;52.066;5.358;2023-04-06T12:11:52;18.30;;;9.75;;
44446;SDS011;30152;52.066;5.358;2023-04-06T12:14:18;19.50;;;9.10;;
44446;SDS011;30152;52.066;5.358;2023-04-06T12:16:44;24.08;;;11.10;;
44446;SDS011;30152;52.066;5.358;2023-04-06T12:19:11;28.13;;;10.60;;
44446;SDS011;30152;52.066;5.358;2023-04-06T12:21:36;24.00;;;10.95;;
44446;SDS011;30152;52.066;5.358;2023-04-06T12:24:02;24.50;;;11.25;;
44446;SDS011;30152;52.066;5.358;2023-04-06T12:26:29;21.77;;;10.40;;
44446;SDS011;30152;52.066;5.358;2023-04-06T12:28:55;23.50;;;12.05;;
44446;SDS011;30152;52.066;5.358;2023-04-06T12:31:21;22.83;;;11.35;;
44446;SDS011;30152;52.066;5.358;2023-04-06T12:33:48;26.58;;;12.13;;
44446;SDS011;30152;52.066;5.358;2023-04-06T12:36:15;27.08;;;12.80;;
44446;SDS011;30152;52.066;5.358;2023-04-06T12:38:44;24.00;;;12.63;;
44446;SDS011;30152;52.066;5.358;2023-04-06T12:41:10;27.50;;;13.70;;
44446;SDS011;30152;52.066;5.358;2023-04-06T12:43:37;22.80;;;11.82;;
44446;SDS011;30152;52.066;5.358;2023-04-06T12:46:03;22.33;;;11.75;;
44446;SDS011;30152;52.066;5.358;2023-04-06T12:48:29;26.85;;;11.95;;
44446;SDS011;30152;52.066;5.358;2023-04-06T12:50:58;25.67;;;12.20;;
44446;SDS011;30152;52.066;5.358;2023-04-06T12:53:25;24.13;;;12.15;;
44446;SDS011;30152;52.066;5.358;2023-04-06T12:55:51;20.85;;;11.82;;
44446;SDS011;30152;52.066;5.358;2023-04-06T12:58:18;23.05;;;11.38;;
44446;SDS011;30152;52.066;5.358;2023-04-06T13:00:44;27.65;;;12.48;;
44446;SDS011;30152;52.066;5.358;2023-04-06T13:03:10;26.40;;;11.95;;
44446;SDS011;30152;52.066;5.358;2023-04-06T13:05:36;21.23;;;11.90;;
44446;SDS011;30152;52.066;5.358;2023-04-06T13:08:09;23.93;;;12.60;;
44446;SDS011;30152;52.066;5.358;2023-04-06T13:10:35;25.40;;;13.07;;
44446;SDS011;30152;52.066;5.358;2023-04-06T13:13:01;27.10;;;12.63;;
44446;SDS011;30152;52.066;5.358;2023-04-06T13:15:27;25.85;;;13.68;;
44446;SDS011;30152;52.066;5.358;2023-04-06T13:17:53;25.85;;;12.90;;
44446;SDS011;30152;52.066;5.358;2023-04-06T13:20:18;26.80;;;13.05;;
44446;SDS011;30152;52.066;5.358;2023-04-06T13:22:44;28.13;;;13.50;;
44446;SDS011;30152;52.066;5.358;2023-04-06T13:25:10;28.77;;;13.90;;
44446;SDS011;30152;52.066;5.358;2023-04-06T13:27:36;25.30;;;13.40;;
44446;SDS011;30152;52.066;5.358;2023-04-06T13:30:03;26.30;;;13.02;;
44446;SDS011;30152;52.066;5.358;2023-04-06T13:32:29;30.02;;;13.82;;
44446;SDS011;30152;52.066;5.358;2023-04-06T13:34:55;21.80;;;12.57;;
44446;SDS011;30152;52.066;5.358;2023-04-06T13:37:22;26.58;;;13.15;;
44446;SDS011;30152;52.066;5.358;2023-04-06T13:39:48;27.38;;;12.60;;
44446;SDS011;30152;52.066;5.358;2023-04-06T13:42:14;32.40;;;14.50;;
44446;SDS011;30152;52.066;5.358;2023-04-06T13:44:40;27.15;;;13.43;;
44446;SDS011;30152;52.066;5.358;2023-04-06T13:47:06;27.70;;;13.77;;
44446;SDS011;30152;52.066;5.358;2023-04-06T13:49:32;30.10;;;13.55;;
44446;SDS011;30152;52.066;5.358;2023-04-06T13:51:58;26.83;;;13.75;;
44446;SDS011;30152;52.066;5.358;2023-04-06T13:54:25;25.50;;;13.32;;
44446;SDS011;30152;52.066;5.358;2023-04-06T13:56:52;30.15;;;15.93;;
44446;SDS011;30152;52.066;5.358;2023-04-06T13:59:18;26.92;;;13.57;;
44446;SDS011;30152;52.066;5.358;2023-04-06T14:01:44;26.52;;;13.52;;
44446;SDS011;30152;52.066;5.358;2023-04-06T14:04:10;30.98;;;14.40;;
44446;SDS011;30152;52.066;5.358;2023-04-06T14:06:36;28.60;;;13.60;;
44446;SDS011;30152;52.066;5.358;2023-04-06T14:09:02;30.65;;;15.10;;
44446;SDS011;30152;52.066;5.358;2023-04-06T14:11:28;29.00;;;13.68;;
44446;SDS011;30152;52.066;5.358;2023-04-06T14:13:55;31.30;;;14.32;;
44446;SDS011;30152;52.066;5.358;2023-04-06T14:16:23;29.80;;;13.88;;
44446;SDS011;30152;52.066;5.358;2023-04-06T14:18:49;28.40;;;14.35;;
44446;SDS011;30152;52.066;5.358;2023-04-06T14:21:16;30.92;;;14.23;;
44446;SDS011;30152;52.066;5.358;2023-04-06T14:23:42;29.65;;;14.07;;
44446;SDS011;30152;52.066;5.358;2023-04-06T14:26:08;24.05;;;13.13;;
44446;SDS011;30152;52.066;5.358;2023-04-06T14:28:34;28.55;;;14.45;;
44446;SDS011;30152;52.066;5.358;2023-04-06T14:31:01;32.63;;;15.63;;
44446;SDS011;30152;52.066;5.358;2023-04-06T14:33:29;30.17;;;13.88;;
44446;SDS011;30152;52.066;5.358;2023-04-06T14:35:56;31.35;;;14.73;;
44446;SDS011;30152;52.066;5.358;2023-04-06T14:38:22;27.73;;;13.85;;
44446;SDS011;30152;52.066;5.358;2023-04-06T14:40:48;31.42;;;14.88;;
44446;SDS011;30152;52.066;5.358;2023-04-06T14:43:14;27.15;;;13.80;;
44446;SDS011;30152;52.066;5.358;2023-04-06T14:45:41;29.73;;;13.55;;
44446;SDS011;30152;52.066;5.358;2023-04-06T14:48:07;27.73;;;14.02;;
44446;SDS011;30152;52.066;5.358;2023-04-06T14:50:36;27.67;;;14.65;;
44446;SDS011;30152;52.066;5.358;2023-04-06T14:53:02;28.55;;;14.65;;
44446;SDS011;30152;52.066;5.358;2023-04-06T14:55:28;31.92;;;14.52;;
44446;SDS011;30152;52.066;5.358;2023-04-06T14:57:54;31.70;;;14.95;;
44446;SDS011;30152;52.066;5.358;2023-04-06T15:00:20;29.25;;;15.25;;
44446;SDS011;30152;52.066;5.358;2023-04-06T15:02:46;27.95;;;14.05;;
44446;SDS011;30152;52.066;5.358;2023-04-06T15:05:12;31.48;;;15.32;;
44446;SDS011;30152;52.066;5.358;2023-04-06T15:07:38;30.95;;;15.23;;
44446;SDS011;30152;52.066;5.358;2023-04-06T15:10:05;28.65;;;14.40;;
44446;SDS011;30152;52.066;5.358;2023-04-06T15:12:31;31.40;;;15.15;;
44446;SDS011;30152;52.066;5.358;2023-04-06T15:14:57;30.67;;;15.23;;
44446;SDS011;30152;52.066;5.358;2023-04-06T15:17:25;29.02;;;14.00;;
44446;SDS011;30152;52.066;5.358;2023-04-06T15:19:52;28.17;;;15.00;;
44446;SDS011;30152;52.066;5.358;2023-04-06T15:22:18;31.13;;;14.88;;
44446;SDS011;30152;52.066;5.358;2023-04-06T15:24:44;35.35;;;15.50;;
44446;SDS011;30152;52.066;5.358;2023-04-06T15:27:10;28.52;;;15.15;;
44446;SDS011;30152;52.066;5.358;2023-04-06T15:29:36;28.15;;;14.50;;
44446;SDS011;30152;52.066;5.358;2023-04-06T15:32:02;32.55;;;14.65;;
44446;SDS011;30152;52.066;5.358;2023-04-06T15:34:30;29.05;;;15.70;;
44446;SDS011;30152;52.066;5.358;2023-04-06T15:36:59;29.35;;;14.55;;
44446;SDS011;30152;52.066;5.358;2023-04-06T15:39:26;26.75;;;14.48;;
44446;SDS011;30152;52.066;5.358;2023-04-06T15:41:53;29.27;;;15.32;;
44446;SDS011;30152;52.066;5.358;2023-04-06T15:44:21;28.05;;;14.45;;
44446;SDS011;30152;52.066;5.358;2023-04-06T15:46:47;31.10;;;14.27;;
44446;SDS011;30152;52.066;5.358;2023-04-06T15:49:13;27.83;;;14.55;;
44446;SDS011;30152;52.066;5.358;2023-04-06T15:51:39;26.73;;;12.93;;
44446;SDS011;30152;52.066;5.358;2023-04-06T15:54:05;27.23;;;14.20;;
44446;SDS011;30152;52.066;5.358;2023-04-06T15:56:31;26.95;;;14.82;;
44446;SDS011;30152;52.066;5.358;2023-04-06T15:58:57;27.40;;;13.35;;
44446;SDS011;30152;52.066;5.358;2023-04-06T16:01:24;26.77;;;13.32;;
44446;SDS011;30152;52.066;5.358;2023-04-06T16:03:50;26.42;;;15.23;;
44446;SDS011;30152;52.066;5.358;2023-04-06T16:06:16;26.60;;;14.95;;
44446;SDS011;30152;52.066;5.358;2023-04-06T16:08:42;27.90;;;14.57;;
44446;SDS011;30152;52.066;5.358;2023-04-06T16:11:08;25.50;;;13.73;;
44446;SDS011;30152;52.066;5.358;2023-04-06T16:13:34;27.27;;;15.45;;
44446;SDS011;30152;52.066;5.358;2023-04-06T16:16:00;31.23;;;15.00;;
44446;SDS011;30152;52.066;5.358;2023-04-06T16:18:28;25.98;;;15.50;;
44446;SDS011;30152;52.066;5.358;2023-04-06T16:20:55;25.85;;;15.13;;
44446;SDS011;30152;52.066;5.358;2023-04-06T16:23:21;30.52;;;14.63;;
44446;SDS011;30152;52.066;5.358;2023-04-06T16:25:47;29.95;;;14.80;;
44446;SDS011;30152;52.066;5.358;2023-04-06T16:28:14;25.48;;;14.27;;
44446;SDS011;30152;52.066;5.358;2023-04-06T16:30:40;26.92;;;15.18;;
44446;SDS011;30152;52.066;5.358;2023-04-06T16:33:06;26.25;;;14.15;;
44446;SDS011;30152;52.066;5.358;2023-04-06T16:35:32;26.45;;;14.48;;
44446;SDS011;30152;52.066;5.358;2023-04-06T16:37:58;27.23;;;14.15;;
44446;SDS011;30152;52.066;5.358;2023-04-06T16:40:27;29.52;;;15.57;;
44446;SDS011;30152;52.066;5.358;2023-04-06T16:42:53;26.80;;;14.93;;
44446;SDS011;30152;52.066;5.358;2023-04-06T16:45:19;29.05;;;15.50;;
44446;SDS011;30152;52.066;5.358;2023-04-06T16:47:45;28.80;;;15.02;;
44446;SDS011;30152;52.066;5.358;2023-04-06T16:50:14;27.33;;;14.80;;
44446;SDS011;30152;52.066;5.358;2023-04-06T16:52:40;26.63;;;14.57;;
44446;SDS011;30152;52.066;5.358;2023-04-06T16:55:06;28.33;;;14.77;;
44446;SDS011;30152;52.066;5.358;2023-04-06T16:57:32;28.65;;;14.52;;
44446;SDS011;30152;52.066;5.358;2023-04-06T16:59:58;26.10;;;14.88;;
44446;SDS011;30152;52.066;5.358;2023-04-06T17:02:25;24.85;;;13.50;;
44446;SDS011;30152;52.066;5.358;2023-04-06T17:04:51;24.70;;;13.73;;
44446;SDS011;30152;52.066;5.358;2023-04-06T17:07:17;25.63;;;14.80;;
44446;SDS011;30152;52.066;5.358;2023-04-06T17:09:43;23.17;;;13.02;;
44446;SDS011;30152;52.066;5.358;2023-04-06T17:12:09;28.50;;;15.75;;
44446;SDS011;30152;52.066;5.358;2023-04-06T17:14:37;26.55;;;15.43;;
44446;SDS011;30152;52.066;5.358;2023-04-06T17:17:03;26.77;;;15.23;;
44446;SDS011;30152;52.066;5.358;2023-04-06T17:19:29;24.52;;;14.73;;
44446;SDS011;30152;52.066;5.358;2023-04-06T17:21:55;26.48;;;13.85;;
44446;SDS011;30152;52.066;5.358;2023-04-06T17:24:21;26.67;;;16.17;;
44446;SDS011;30152;52.066;5.358;2023-04-06T17:26:47;25.13;;;14.25;;
44446;SDS011;30152;52.066;5.358;2023-04-06T17:29:13;26.55;;;15.23;;
44446;SDS011;30152;52.066;5.358;2023-04-06T17:31:40;24.90;;;14.55;;
44446;SDS011;30152;52.066;5.358;2023-04-06T17:34:08;24.63;;;15.50;;
44446;SDS011;30152;52.066;5.358;2023-04-06T17:36:35;26.45;;;16.10;;
44446;SDS011;30152;52.066;5.358;2023-04-06T17:39:01;31.00;;;17.00;;
44446;SDS011;30152;52.066;5.358;2023-04-06T17:41:27;28.13;;;15.85;;
44446;SDS011;30152;52.066;5.358;2023-04-06T17:43:56;25.33;;;15.63;;
44446;SDS011;30152;52.066;5.358;2023-04-06T17:46:22;26.13;;;15.85;;
44446;SDS011;30152;52.066;5.358;2023-04-06T17:48:48;25.80;;;16.70;;
44446;SDS011;30152;52.066;5.358;2023-04-06T17:51:15;26.90;;;15.55;;
44446;SDS011;30152;52.066;5.358;2023-04-06T17:53:43;27.50;;;15.50;;
44446;SDS011;30152;52.066;5.358;2023-04-06T17:56:09;25.70;;;14.85;;
44446;SDS011;30152;52.066;5.358;2023-04-06T17:58:35;27.60;;;16.25;;
44446;SDS011;30152;52.066;5.358;2023-04-06T18:01:07;27.58;;;16.67;;
44446;SDS011;30152;52.066;5.358;2023-04-06T18:03:35;25.33;;;15.05;;
44446;SDS011;30152;52.066;5.358;2023-04-06T18:06:07;26.23;;;15.30;;
44446;SDS011;30152;52.066;5.358;2023-04-06T18:08:34;24.83;;;15.13;;
44446;SDS011;30152;52.066;5.358;2023-04-06T18:11:00;23.27;;;14.85;;
44446;SDS011;30152;52.066;5.358;2023-04-06T18:13:28;25.85;;;16.02;;
44446;SDS011;30152;52.066;5.358;2023-04-06T18:15:54;26.00;;;16.00;;
44446;SDS011;30152;52.066;5.358;2023-04-06T18:18:20;23.75;;;15.00;;
44446;SDS011;30152;52.066;5.358;2023-04-06T18:20:46;25.98;;;16.10;;
44446;SDS011;30152;52.066;5.358;2023-04-06T18:23:12;24.90;;;16.45;;
44446;SDS011;30152;52.066;5.358;2023-04-06T18:25:38;26.52;;;16.95;;
44446;SDS011;30152;52.066;5.358;2023-04-06T18:28:05;26.63;;;16.23;;
44446;SDS011;30152;52.066;5.358;2023-04-06T18:30:31;29.38;;;18.05;;
44446;SDS011;30152;52.066;5.358;2023-04-06T18:32:56;26.98;;;16.40;;
44446;SDS011;30152;52.066;5.358;2023-04-06T18:35:24;25.02;;;16.90;;
44446;SDS011;30152;52.066;5.358;2023-04-06T18:37:50;29.02;;;16.65;;
44446;SDS011;30152;52.066;5.358;2023-04-06T18:40:29;33.35;;;18.65;;
44446;SDS011;30152;52.066;5.358;2023-04-06T18:42:55;31.17;;;18.55;;
44446;SDS011;30152;52.066;5.358;2023-04-06T18:45:21;27.80;;;17.67;;
44446;SDS011;30152;52.066;5.358;2023-04-06T18:47:47;31.23;;;18.48;;
44446;SDS011;30152;52.066;5.358;2023-04-06T18:50:13;27.70;;;17.42;;
44446;SDS011;30152;52.066;5.358;2023-04-06T18:52:40;26.42;;;17.33;;
44446;SDS011;30152;52.066;5.358;2023-04-06T18:55:06;26.20;;;17.40;;
44446;SDS011;30152;52.066;5.358;2023-04-06T18:57:33;29.30;;;18.20;;
44446;SDS011;30152;52.066;5.358;2023-04-06T18:59:59;30.90;;;18.92;;
44446;SDS011;30152;52.066;5.358;2023-04-06T19:02:25;28.08;;;18.42;;
44446;SDS011;30152;52.066;5.358;2023-04-06T19:04:51;27.38;;;17.38;;
44446;SDS011;30152;52.066;5.358;2023-04-06T19:07:17;27.08;;;17.35;;
44446;SDS011;30152;52.066;5.358;2023-04-06T19:09:43;30.15;;;17.50;;
44446;SDS011;30152;52.066;5.358;2023-04-06T19:12:09;26.30;;;16.67;;
44446;SDS011;30152;52.066;5.358;2023-04-06T19:14:35;27.67;;;17.27;;
44446;SDS011;30152;52.066;5.358;2023-04-06T19:17:01;25.83;;;16.70;;
44446;SDS011;30152;52.066;5.358;2023-04-06T19:19:27;26.85;;;17.05;;
44446;SDS011;30152;52.066;5.358;2023-04-06T19:21:53;27.58;;;17.15;;
44446;SDS011;30152;52.066;5.358;2023-04-06T19:24:19;28.48;;;17.98;;
44446;SDS011;30152;52.066;5.358;2023-04-06T19:26:45;29.08;;;18.80;;
44446;SDS011;30152;52.066;5.358;2023-04-06T19:29:11;32.53;;;20.42;;
44446;SDS011;30152;52.066;5.358;2023-04-06T19:31:37;28.88;;;18.90;;
44446;SDS011;30152;52.066;5.358;2023-04-06T19:34:03;30.10;;;18.88;;
44446;SDS011;30152;52.066;5.358;2023-04-06T19:36:29;34.13;;;20.67;;
44446;SDS011;30152;52.066;5.358;2023-04-06T19:38:56;31.33;;;19.30;;
44446;SDS011;30152;52.066;5.358;2023-04-06T19:41:22;33.35;;;20.83;;
44446;SDS011;30152;52.066;5.358;2023-04-06T19:43:48;36.10;;;21.90;;
44446;SDS011;30152;52.066;5.358;2023-04-06T19:46:13;34.25;;;21.55;;
44446;SDS011;30152;52.066;5.358;2023-04-06T19:48:39;35.05;;;21.98;;
44446;SDS011;30152;52.066;5.358;2023-04-06T19:51:06;37.83;;;22.27;;
44446;SDS011;30152;52.066;5.358;2023-04-06T19:53:32;34.40;;;21.83;;
44446;SDS011;30152;52.066;5.358;2023-04-06T19:55:58;38.28;;;22.88;;
44446;SDS011;30152;52.066;5.358;2023-04-06T19:58:25;37.15;;;21.90;;
44446;SDS011;30152;52.066;5.358;2023-04-06T20:00:50;36.10;;;22.58;;
44446;SDS011;30152;52.066;5.358;2023-04-06T20:03:16;36.85;;;23.23;;
44446;SDS011;30152;52.066;5.358;2023-04-06T20:05:42;41.88;;;24.25;;
44446;SDS011;30152;52.066;5.358;2023-04-06T20:08:08;38.50;;;23.13;;
44446;SDS011;30152;52.066;5.358;2023-04-06T20:10:34;38.28;;;23.30;;
44446;SDS011;30152;52.066;5.358;2023-04-06T20:13:00;39.17;;;23.80;;
44446;SDS011;30152;52.066;5.358;2023-04-06T20:15:26;41.40;;;23.45;;
44446;SDS011;30152;52.066;5.358;2023-04-06T20:17:52;36.75;;;21.67;;
44446;SDS011;30152;52.066;5.358;2023-04-06T20:20:18;36.88;;;22.92;;
44446;SDS011;30152;52.066;5.358;2023-04-06T20:22:44;38.65;;;23.95;;
44446;SDS011;30152;52.066;5.358;2023-04-06T20:25:13;39.85;;;23.60;;
44446;SDS011;30152;52.066;5.358;2023-04-06T20:27:39;41.35;;;24.88;;
44446;SDS011;30152;52.066;5.358;2023-04-06T20:30:06;41.65;;;25.75;;
44446;SDS011;30152;52.066;5.358;2023-04-06T20:32:32;45.65;;;26.38;;